Time;durP1;ratioP1;P1;durP2;ratioP2;P2;SDS_P1;SDS_P2;PMS_P1;PMS_P2;Temp;Humidity;BMP_temperature;BMP_pressure;BME280_temperature;BME280_humidity;BME280_pressure;Samples;Min_cycle;Max_cycle;Signal;HPM_P1;HPM_P2
2022/01/30 00:01:44;;;;;;;83.45;49.95;;;;;;;;;;4976760;28;20026;-79
2022/01/30 00:04:09;;;;;;;61.33;36.63;;;;;;;;;;4975209;28;20128;-79
2022/01/30 00:06:34;;;;;;;46.30;25.92;;;;;;;;;;4975044;28;20026;-78
2022/01/30 00:09:00;;;;;;;55.35;30.00;;;;;;;;;;4976754;28;20026;-78
2022/01/30 00:11:30;;;;;;;50.03;27.85;;;;;;;;;;4991773;28;20825;-80
2022/01/30 00:13:57;;;;;;;38.60;23.15;;;;;;;;;;4976936;28;20041;-78
2022/01/30 00:16:25;;;;;;;94.25;53.08;;;;;;;;;;4991170;28;20035;-80
2022/01/30 00:19:01;;;;;;;45.33;26.63;;;;;;;;;;4976352;28;20077;-78
2022/01/30 00:24:07;;;;;;;23.38;12.45;;;;;;;;;;4976572;28;20526;-78
2022/01/30 00:26:35;;;;;;;24.75;13.32;;;;;;;;;;4974607;28;20542;-80
2022/01/30 00:29:00;;;;;;;24.27;15.00;;;;;;;;;;4974959;28;20023;-81
2022/01/30 00:31:26;;;;;;;48.15;23.92;;;;;;;;;;4970091;28;20033;-81
2022/01/30 00:33:52;;;;;;;71.10;39.45;;;;;;;;;;4977865;28;20041;-80
2022/01/30 00:36:17;;;;;;;115.88;52.00;;;;;;;;;;4966369;28;20606;-80
2022/01/30 00:38:42;;;;;;;328.98;130.98;;;;;;;;;;4974828;28;20022;-79
2022/01/30 00:41:08;;;;;;;99.60;43.88;;;;;;;;;;4974173;28;20474;-80
2022/01/30 00:43:33;;;;;;;369.83;151.50;;;;;;;;;;4976260;28;20466;-80
2022/01/30 00:45:59;;;;;;;424.55;172.48;;;;;;;;;;4974823;28;20077;-79
2022/01/30 00:48:24;;;;;;;388.05;153.05;;;;;;;;;;4975985;28;20045;-77
2022/01/30 00:50:49;;;;;;;254.80;106.57;;;;;;;;;;4976482;28;20068;-79
2022/01/30 00:53:15;;;;;;;257.40;115.85;;;;;;;;;;4975983;28;20375;-81
2022/01/30 00:55:40;;;;;;;104.88;48.60;;;;;;;;;;4974228;28;20026;-81
2022/01/30 00:58:06;;;;;;;275.00;111.90;;;;;;;;;;4977328;28;20133;-80
2022/01/30 01:00:32;;;;;;;199.25;89.57;;;;;;;;;;4976036;28;20028;-78
2022/01/30 01:02:58;;;;;;;112.85;53.65;;;;;;;;;;4972493;28;20459;-80
2022/01/30 01:05:23;;;;;;;91.28;40.88;;;;;;;;;;4964373;28;20058;-80
2022/01/30 01:07:50;;;;;;;83.72;43.13;;;;;;;;;;4956576;28;20106;-80
2022/01/30 01:23:30;;;;;;;41.28;23.55;;;;;;;;;;4956383;28;20050;-79
2022/01/30 01:25:56;;;;;;;37.22;20.02;;;;;;;;;;4956469;28;20026;-80
2022/01/30 01:28:22;;;;;;;31.15;18.17;;;;;;;;;;4955081;28;20085;-80
2022/01/30 01:30:48;;;;;;;39.45;21.48;;;;;;;;;;4954613;28;20031;-80
2022/01/30 01:33:14;;;;;;;31.83;17.40;;;;;;;;;;4989419;28;20102;-79
2022/01/30 01:35:40;;;;;;;31.88;20.42;;;;;;;;;;4963695;28;20104;-79
2022/01/30 01:38:10;;;;;;;35.63;20.55;;;;;;;;;;4975438;28;20531;-78
2022/01/30 01:40:36;;;;;;;40.28;24.33;;;;;;;;;;4975001;28;20054;-80
2022/01/30 01:43:02;;;;;;;40.22;25.52;;;;;;;;;;4975074;28;20105;-80
2022/01/30 01:45:33;;;;;;;73.13;37.53;;;;;;;;;;4975216;28;20034;-80
2022/01/30 01:48:02;;;;;;;74.57;38.25;;;;;;;;;;4975303;28;20018;-79
2022/01/30 01:50:38;;;;;;;52.30;32.85;;;;;;;;;;4975158;28;20022;-79
2022/01/30 01:53:05;;;;;;;50.67;25.27;;;;;;;;;;4974210;28;20089;-80
2022/01/30 01:55:31;;;;;;;42.78;23.75;;;;;;;;;;4975458;28;20033;-80
2022/01/30 01:57:56;;;;;;;41.97;21.65;;;;;;;;;;4975121;28;20030;-79
2022/01/30 02:00:21;;;;;;;34.60;21.05;;;;;;;;;;4974944;28;20032;-79
2022/01/30 02:02:46;;;;;;;40.00;23.25;;;;;;;;;;4975298;28;20101;-80
2022/01/30 02:05:12;;;;;;;31.80;20.75;;;;;;;;;;4974980;28;20026;-79
2022/01/30 02:10:10;;;;;;;23.58;15.93;;;;;;;;;;4969064;28;20109;-79
2022/01/30 02:12:46;;;;;;;22.05;14.52;;;;;;;;;;4955760;28;20121;-80
2022/01/30 02:25:58;;;;;;;35.88;19.98;;;;;;;;;;4958768;28;20074;-80
2022/01/30 02:28:25;;;;;;;24.73;13.05;;;;;;;;;;4960080;28;20054;-79
2022/01/30 02:31:05;;;;;;;26.83;13.88;;;;;;;;;;4957761;28;20117;-80
2022/01/30 02:33:30;;;;;;;35.63;20.58;;;;;;;;;;4973517;28;20113;-80
2022/01/30 02:35:56;;;;;;;21.05;14.07;;;;;;;;;;4960186;28;20150;-79
2022/01/30 02:38:22;;;;;;;25.45;15.75;;;;;;;;;;4957832;28;20053;-80
2022/01/30 02:40:49;;;;;;;19.48;9.85;;;;;;;;;;4966844;28;20050;-79
2022/01/30 02:43:19;;;;;;;17.33;9.77;;;;;;;;;;4974842;28;20038;-79
2022/01/30 02:45:50;;;;;;;19.13;11.13;;;;;;;;;;4993149;28;20054;-78
2022/01/30 02:48:19;;;;;;;15.63;10.20;;;;;;;;;;4978788;28;20482;-79
2022/01/30 02:50:56;;;;;;;27.77;15.40;;;;;;;;;;4978522;28;20030;-79
2022/01/30 02:53:29;;;;;;;30.92;16.58;;;;;;;;;;4978594;28;20022;-81
2022/01/30 02:55:55;;;;;;;27.73;14.20;;;;;;;;;;4978234;28;20026;-80
2022/01/30 02:58:21;;;;;;;24.80;15.07;;;;;;;;;;4976504;28;20034;-80
2022/01/30 03:00:46;;;;;;;18.40;10.63;;;;;;;;;;4976216;28;20026;-80
2022/01/30 03:03:11;;;;;;;14.98;9.07;;;;;;;;;;4977863;28;20030;-80
2022/01/30 03:05:36;;;;;;;14.60;9.07;;;;;;;;;;4978176;28;20113;-79
2022/01/30 03:08:02;;;;;;;13.52;7.63;;;;;;;;;;4977925;28;20669;-80
2022/01/30 03:10:27;;;;;;;14.15;9.13;;;;;;;;;;4977766;28;20046;-79
2022/01/30 03:12:52;;;;;;;19.90;10.95;;;;;;;;;;4976331;28;20561;-79
2022/01/30 03:15:18;;;;;;;18.45;10.65;;;;;;;;;;4977380;28;20387;-79
2022/01/30 03:17:43;;;;;;;15.95;10.70;;;;;;;;;;4976375;28;20383;-80
2022/01/30 03:20:09;;;;;;;17.08;10.55;;;;;;;;;;4977534;28;20026;-78
2022/01/30 03:22:35;;;;;;;25.15;13.75;;;;;;;;;;4977555;28;20026;-80
2022/01/30 03:25:00;;;;;;;15.27;8.82;;;;;;;;;;4976206;28;20057;-80
2022/01/30 03:27:28;;;;;;;13.25;8.10;;;;;;;;;;4976887;28;20026;-79
2022/01/30 03:30:03;;;;;;;16.73;8.85;;;;;;;;;;4975708;28;20025;-80
2022/01/30 03:32:28;;;;;;;14.77;10.43;;;;;;;;;;4972390;28;20113;-79
2022/01/30 03:34:54;;;;;;;285.80;97.00;;;;;;;;;;4971858;28;20427;-79
2022/01/30 03:37:19;;;;;;;101.70;32.72;;;;;;;;;;4977102;28;20049;-79
2022/01/30 03:39:44;;;;;;;24.15;12.20;;;;;;;;;;4972488;28;20031;-79
2022/01/30 03:42:10;;;;;;;26.80;13.70;;;;;;;;;;4957365;28;20018;-80
2022/01/30 03:44:35;;;;;;;15.70;8.27;;;;;;;;;;4956411;28;20661;-80
2022/01/30 03:47:01;;;;;;;12.63;7.53;;;;;;;;;;4957842;28;20031;-79
2022/01/30 03:49:26;;;;;;;13.65;7.82;;;;;;;;;;4957327;28;20158;-79
2022/01/30 03:51:51;;;;;;;19.55;11.73;;;;;;;;;;4957809;28;20030;-80
2022/01/30 03:54:17;;;;;;;28.05;17.88;;;;;;;;;;4956235;28;20038;-79
2022/01/30 03:56:42;;;;;;;24.45;13.65;;;;;;;;;;4968092;28;20376;-80
2022/01/30 03:59:08;;;;;;;22.80;14.40;;;;;;;;;;4975964;28;20048;-79
2022/01/30 04:01:33;;;;;;;23.95;15.73;;;;;;;;;;4975428;28;20023;-79
2022/01/30 04:03:59;;;;;;;20.65;13.85;;;;;;;;;;4976609;28;20035;-80
2022/01/30 04:06:24;;;;;;;20.20;13.85;;;;;;;;;;4976867;28;20026;-80
2022/01/30 04:08:50;;;;;;;21.13;12.80;;;;;;;;;;4975209;28;20527;-80
2022/01/30 04:11:15;;;;;;;14.63;9.20;;;;;;;;;;4975258;28;20319;-80
2022/01/30 04:13:40;;;;;;;12.93;8.52;;;;;;;;;;4975278;28;20053;-79
2022/01/30 04:16:06;;;;;;;12.93;8.27;;;;;;;;;;4975106;28;20395;-80
2022/01/30 04:18:31;;;;;;;14.20;7.97;;;;;;;;;;4976177;28;20039;-81
2022/01/30 04:20:57;;;;;;;13.23;7.55;;;;;;;;;;4976642;28;20019;-79
2022/01/30 04:23:22;;;;;;;10.70;6.97;;;;;;;;;;4975167;28;20070;-79
2022/01/30 04:25:48;;;;;;;13.95;7.15;;;;;;;;;;4977236;28;20029;-79
2022/01/30 04:28:14;;;;;;;16.05;7.32;;;;;;;;;;4976371;28;21203;-79
2022/01/30 04:30:39;;;;;;;21.65;13.30;;;;;;;;;;4966360;28;20039;-79
2022/01/30 04:33:05;;;;;;;20.55;13.00;;;;;;;;;;4967835;28;20169;-79
2022/01/30 04:35:30;;;;;;;20.05;12.50;;;;;;;;;;4974690;28;20037;-80
2022/01/30 04:40:58;;;;;;;22.27;12.02;;;;;;;;;;4976328;28;20072;-80
2022/01/30 05:09:45;;;;;;;17.73;10.52;;;;;;;;;;4975911;28;20547;-80
2022/01/30 05:12:12;;;;;;;11.93;9.07;;;;;;;;;;4975666;28;20031;-78
2022/01/30 05:14:38;;;;;;;15.38;9.00;;;;;;;;;;4975699;28;20498;-79
2022/01/30 05:17:04;;;;;;;217.88;78.47;;;;;;;;;;4975943;28;20109;-79
2022/01/30 05:19:30;;;;;;;59.03;19.30;;;;;;;;;;4974495;28;20031;-80
2022/01/30 05:21:56;;;;;;;19.65;9.45;;;;;;;;;;4975586;28;20604;-79
2022/01/30 05:24:21;;;;;;;13.77;8.38;;;;;;;;;;4976339;28;20444;-79
2022/01/30 05:26:47;;;;;;;8.60;5.53;;;;;;;;;;4976062;28;20149;-79
2022/01/30 05:29:13;;;;;;;55.85;35.72;;;;;;;;;;4975195;28;20022;-80
2022/01/30 05:31:38;;;;;;;33.83;21.23;;;;;;;;;;4975727;28;20102;-79
2022/01/30 05:34:04;;;;;;;10.90;6.68;;;;;;;;;;4975753;28;20030;-79
2022/01/30 05:36:32;;;;;;;10.27;6.45;;;;;;;;;;4974222;28;20022;-79
2022/01/30 05:38:58;;;;;;;9.50;6.40;;;;;;;;;;4974151;28;20113;-79
2022/01/30 05:41:23;;;;;;;9.27;6.07;;;;;;;;;;4973836;28;20137;-79
2022/01/30 05:43:53;;;;;;;13.30;6.53;;;;;;;;;;4975519;28;20038;-80
2022/01/30 05:46:28;;;;;;;15.05;9.18;;;;;;;;;;4974152;28;20026;-79
2022/01/30 05:48:54;;;;;;;12.25;7.45;;;;;;;;;;4975223;28;20069;-79
2022/01/30 05:51:19;;;;;;;17.90;9.10;;;;;;;;;;4978156;28;20734;-79
2022/01/30 05:53:44;;;;;;;11.43;6.75;;;;;;;;;;4979906;28;20029;-80
2022/01/30 05:56:11;;;;;;;15.40;7.32;;;;;;;;;;4978969;28;20407;-79
2022/01/30 05:58:36;;;;;;;10.80;6.55;;;;;;;;;;4979297;28;20455;-78
2022/01/30 06:01:02;;;;;;;8.98;5.68;;;;;;;;;;4979061;28;20025;-79
2022/01/30 06:03:29;;;;;;;16.00;9.88;;;;;;;;;;4978719;28;20022;-79
2022/01/30 06:05:54;;;;;;;9.88;6.07;;;;;;;;;;4975733;28;20029;-79
2022/01/30 06:08:39;;;;;;;10.02;6.32;;;;;;;;;;4970261;28;20023;-79
2022/01/30 06:11:05;;;;;;;49.15;23.05;;;;;;;;;;4959251;28;20033;-79
2022/01/30 06:13:30;;;;;;;18.48;9.73;;;;;;;;;;4958169;28;20026;-78
2022/01/30 06:15:55;;;;;;;9.35;5.40;;;;;;;;;;4957550;28;20050;-79
2022/01/30 06:18:21;;;;;;;12.07;6.57;;;;;;;;;;4957889;28;20042;-79
2022/01/30 06:20:46;;;;;;;10.90;6.15;;;;;;;;;;4958064;28;20030;-78
2022/01/30 06:23:11;;;;;;;10.05;6.35;;;;;;;;;;4989787;28;20023;-80
2022/01/30 06:25:37;;;;;;;12.93;9.35;;;;;;;;;;4960376;28;20530;-80
2022/01/30 06:28:02;;;;;;;10.48;6.78;;;;;;;;;;4959232;28;20349;-80
2022/01/30 06:30:28;;;;;;;9.60;5.80;;;;;;;;;;4958806;28;20026;-79
2022/01/30 06:32:53;;;;;;;10.30;6.38;;;;;;;;;;4959583;28;20069;-80
2022/01/30 06:35:18;;;;;;;13.43;8.07;;;;;;;;;;4959121;28;20468;-78
2022/01/30 06:37:44;;;;;;;24.45;15.32;;;;;;;;;;4959204;28;20053;-80
2022/01/30 06:40:10;;;;;;;48.08;32.25;;;;;;;;;;4959502;28;20077;-80
2022/01/30 06:42:35;;;;;;;27.77;17.05;;;;;;;;;;4959127;28;20077;-79
2022/01/30 06:45:00;;;;;;;16.77;11.02;;;;;;;;;;4959120;28;20054;-80
2022/01/30 06:47:26;;;;;;;22.10;13.23;;;;;;;;;;4962885;28;20487;-80
2022/01/30 06:49:51;;;;;;;51.40;33.00;;;;;;;;;;4973720;28;20028;-79
2022/01/30 06:52:16;;;;;;;21.85;12.43;;;;;;;;;;4957113;28;20089;-80
2022/01/30 06:54:42;;;;;;;30.60;18.35;;;;;;;;;;4989907;28;20447;-80
2022/01/30 06:57:07;;;;;;;51.03;29.80;;;;;;;;;;5005699;28;20026;-79
2022/01/30 06:59:33;;;;;;;117.70;66.13;;;;;;;;;;4976465;28;20030;-79
2022/01/30 07:01:58;;;;;;;46.65;26.67;;;;;;;;;;4976578;28;20026;-80
2022/01/30 07:04:25;;;;;;;39.35;24.55;;;;;;;;;;4973887;28;20034;-78
2022/01/30 07:06:50;;;;;;;60.42;37.65;;;;;;;;;;4969523;28;20027;-79
2022/01/30 07:09:16;;;;;;;36.53;21.70;;;;;;;;;;4976197;28;20045;-77
2022/01/30 07:11:42;;;;;;;62.25;36.40;;;;;;;;;;4978141;28;20018;-77
2022/01/30 07:14:07;;;;;;;34.67;18.65;;;;;;;;;;4975752;28;20403;-76
2022/01/30 07:16:33;;;;;;;24.60;13.10;;;;;;;;;;4976090;28;20056;-75
2022/01/30 07:19:01;;;;;;;12.90;7.25;;;;;;;;;;4975992;28;20026;-76
2022/01/30 07:21:27;;;;;;;14.60;8.90;;;;;;;;;;4977416;28;20030;-74
2022/01/30 07:23:52;;;;;;;8.13;5.20;;;;;;;;;;4977558;28;20022;-76
2022/01/30 07:26:18;;;;;;;11.73;6.38;;;;;;;;;;4977822;28;20080;-74
2022/01/30 07:28:43;;;;;;;52.67;27.38;;;;;;;;;;4977088;28;20022;-75
2022/01/30 07:31:11;;;;;;;13.70;7.25;;;;;;;;;;4976916;28;20084;-78
2022/01/30 07:33:40;;;;;;;24.75;12.30;;;;;;;;;;4976839;28;20026;-76
2022/01/30 07:36:07;;;;;;;19.27;10.60;;;;;;;;;;4976979;28;20030;-77
2022/01/30 07:38:32;;;;;;;24.92;13.10;;;;;;;;;;4975458;28;20088;-75
2022/01/30 07:40:58;;;;;;;23.02;12.88;;;;;;;;;;4974880;28;20464;-73
2022/01/30 07:43:23;;;;;;;16.02;8.68;;;;;;;;;;4976585;28;20026;-75
2022/01/30 07:45:49;;;;;;;17.90;10.52;;;;;;;;;;4977203;28;20030;-75
2022/01/30 07:48:15;;;;;;;18.08;10.15;;;;;;;;;;4974787;28;20845;-74
2022/01/30 07:50:40;;;;;;;19.13;12.45;;;;;;;;;;4971913;28;20029;-76
2022/01/30 07:53:06;;;;;;;17.83;11.25;;;;;;;;;;4972156;28;20023;-77
2022/01/30 07:55:31;;;;;;;13.02;9.02;;;;;;;;;;4973994;28;20026;-76
2022/01/30 07:57:57;;;;;;;11.63;7.38;;;;;;;;;;4976594;28;20015;-78
2022/01/30 08:00:22;;;;;;;22.98;12.80;;;;;;;;;;4976441;28;20779;-76
2022/01/30 08:02:49;;;;;;;16.38;9.20;;;;;;;;;;4976446;28;20022;-76
2022/01/30 08:05:15;;;;;;;19.80;13.73;;;;;;;;;;4976936;28;20080;-76
2022/01/30 08:07:40;;;;;;;18.70;11.85;;;;;;;;;;4977057;28;20022;-76
2022/01/30 08:10:06;;;;;;;11.32;7.18;;;;;;;;;;4976077;28;20368;-76
2022/01/30 08:12:31;;;;;;;9.88;5.40;;;;;;;;;;4976741;28;20026;-77
2022/01/30 08:14:56;;;;;;;23.92;12.07;;;;;;;;;;4976005;28;20081;-77
2022/01/30 08:17:23;;;;;;;19.95;11.32;;;;;;;;;;4974436;28;20027;-76
2022/01/30 08:19:49;;;;;;;12.57;6.93;;;;;;;;;;4991515;28;20026;-78
2022/01/30 08:22:14;;;;;;;25.45;11.60;;;;;;;;;;4974751;28;20080;-76
2022/01/30 08:24:40;;;;;;;76.78;34.60;;;;;;;;;;4972561;28;20487;-76
2022/01/30 08:27:05;;;;;;;48.15;24.33;;;;;;;;;;4974814;28;20030;-76
2022/01/30 08:29:31;;;;;;;34.38;17.52;;;;;;;;;;4976118;28;20022;-76
2022/01/30 08:31:58;;;;;;;48.20;25.35;;;;;;;;;;4974851;28;20026;-77
2022/01/30 08:34:23;;;;;;;54.40;29.92;;;;;;;;;;4976011;28;20030;-76
2022/01/30 08:36:49;;;;;;;45.55;25.17;;;;;;;;;;4976332;28;20080;-77
2022/01/30 08:39:14;;;;;;;36.40;19.02;;;;;;;;;;4974592;28;20030;-75
2022/01/30 08:41:45;;;;;;;15.02;8.02;;;;;;;;;;4976708;28;20053;-78
2022/01/30 08:44:19;;;;;;;14.38;10.00;;;;;;;;;;4976911;28;20356;-79
2022/01/30 08:46:53;;;;;;;20.73;13.35;;;;;;;;;;4976306;28;20097;-80
2022/01/30 08:49:19;;;;;;;24.85;13.88;;;;;;;;;;4975869;28;20022;-76
2022/01/30 08:51:48;;;;;;;22.98;14.55;;;;;;;;;;4976371;28;20014;-79
2022/01/30 08:54:13;;;;;;;16.63;9.45;;;;;;;;;;4976792;28;20030;-77
2022/01/30 08:56:39;;;;;;;28.67;19.35;;;;;;;;;;4976025;28;20105;-76
2022/01/30 08:59:04;;;;;;;16.63;9.98;;;;;;;;;;4975843;28;20028;-77
2022/01/30 09:01:32;;;;;;;18.17;13.68;;;;;;;;;;4975998;28;20030;-77
2022/01/30 09:03:59;;;;;;;24.25;15.00;;;;;;;;;;4977077;28;20467;-77
2022/01/30 09:06:25;;;;;;;12.93;8.43;;;;;;;;;;4991981;28;20026;-77
2022/01/30 09:08:50;;;;;;;11.82;7.75;;;;;;;;;;4995807;28;20092;-76
2022/01/30 09:11:15;;;;;;;11.70;8.82;;;;;;;;;;4993223;28;20517;-76
2022/01/30 09:13:41;;;;;;;16.35;9.77;;;;;;;;;;4983524;28;20038;-76
2022/01/30 09:16:07;;;;;;;20.65;12.88;;;;;;;;;;4975353;28;20068;-77
2022/01/30 09:18:32;;;;;;;7.43;5.78;;;;;;;;;;4974099;28;20026;-77
2022/01/30 09:20:58;;;;;;;9.27;5.97;;;;;;;;;;4975783;28;20534;-75
2022/01/30 09:23:24;;;;;;;10.00;6.82;;;;;;;;;;4967421;28;20031;-77
2022/01/30 09:25:49;;;;;;;7.22;4.80;;;;;;;;;;4970856;28;20069;-78
2022/01/30 09:28:15;;;;;;;9.20;5.82;;;;;;;;;;4975864;28;20058;-77
2022/01/30 09:30:40;;;;;;;9.38;6.78;;;;;;;;;;4973216;28;20026;-77
2022/01/30 09:33:06;;;;;;;12.10;7.78;;;;;;;;;;4977312;28;20030;-77
2022/01/30 09:35:31;;;;;;;10.05;5.47;;;;;;;;;;4977855;28;20033;-77
2022/01/30 09:37:57;;;;;;;7.25;5.47;;;;;;;;;;4977303;28;20045;-76
2022/01/30 09:40:23;;;;;;;6.88;4.50;;;;;;;;;;4978317;28;20054;-76
2022/01/30 09:42:49;;;;;;;45.17;27.67;;;;;;;;;;4979337;28;20058;-77
2022/01/30 09:45:15;;;;;;;15.30;10.40;;;;;;;;;;4977410;28;20031;-75
2022/01/30 09:47:41;;;;;;;8.27;4.82;;;;;;;;;;4978757;28;20029;-77
2022/01/30 09:50:07;;;;;;;11.95;9.20;;;;;;;;;;4978900;28;20086;-79
2022/01/30 09:52:32;;;;;;;8.60;5.63;;;;;;;;;;4977512;28;20030;-79
2022/01/30 09:54:59;;;;;;;19.20;10.63;;;;;;;;;;4976778;28;20080;-77
2022/01/30 09:57:25;;;;;;;8.48;5.50;;;;;;;;;;4978644;28;20121;-76
2022/01/30 09:59:50;;;;;;;13.05;6.43;;;;;;;;;;4976908;28;20022;-77
2022/01/30 10:02:16;;;;;;;27.25;13.68;;;;;;;;;;4996141;28;20056;-77
2022/01/30 10:04:41;;;;;;;10.82;6.70;;;;;;;;;;4996584;28;20628;-78
2022/01/30 10:07:16;;;;;;;14.25;8.57;;;;;;;;;;4996977;28;20026;-77
2022/01/30 10:10:05;;;;;;;12.45;7.78;;;;;;;;;;4982967;28;20025;-79
2022/01/30 10:12:31;;;;;;;7.47;4.78;;;;;;;;;;4976121;28;20058;-77
2022/01/30 10:14:56;;;;;;;10.10;5.43;;;;;;;;;;4975618;28;20069;-77
2022/01/30 10:17:23;;;;;;;18.02;10.27;;;;;;;;;;4957803;28;20081;-76
2022/01/30 10:19:50;;;;;;;8.10;5.15;;;;;;;;;;4971212;28;20034;-77
2022/01/30 10:22:15;;;;;;;21.27;12.90;;;;;;;;;;4972479;28;20022;-78
2022/01/30 10:24:41;;;;;;;12.80;7.60;;;;;;;;;;4993077;28;20900;-79
2022/01/30 10:27:20;;;;;;;12.02;7.30;;;;;;;;;;4987142;28;20042;-79
2022/01/30 10:29:54;;;;;;;6.93;4.45;;;;;;;;;;4958950;28;20022;-76
2022/01/30 10:32:20;;;;;;;24.48;13.15;;;;;;;;;;4957868;28;20077;-75
2022/01/30 10:34:55;;;;;;;27.50;15.20;;;;;;;;;;4959119;28;20372;-76
2022/01/30 10:37:23;;;;;;;82.63;43.33;;;;;;;;;;4975183;28;20031;-78
2022/01/30 10:39:55;;;;;;;17.98;9.30;;;;;;;;;;4978477;28;20022;-76
2022/01/30 10:42:35;;;;;;;19.85;14.15;;;;;;;;;;4978065;28;20057;-80
2022/01/30 10:45:01;;;;;;;23.20;15.93;;;;;;;;;;4978322;28;20033;-76
2022/01/30 10:47:26;;;;;;;29.15;20.00;;;;;;;;;;4976605;28;20117;-75
2022/01/30 10:49:51;;;;;;;13.48;9.13;;;;;;;;;;4977312;28;20022;-75
2022/01/30 10:52:17;;;;;;;8.10;5.00;;;;;;;;;;4978075;28;20121;-77
2022/01/30 10:54:42;;;;;;;5.82;3.67;;;;;;;;;;4977328;28;20031;-78
2022/01/30 10:57:09;;;;;;;7.15;5.38;;;;;;;;;;4976294;28;20031;-77
2022/01/30 10:59:42;;;;;;;6.60;4.55;;;;;;;;;;4976603;28;20022;-79
2022/01/30 11:02:18;;;;;;;11.80;7.45;;;;;;;;;;4976434;28;20056;-80
2022/01/30 11:04:44;;;;;;;12.35;8.40;;;;;;;;;;4977268;28;20056;-77
2022/01/30 11:07:10;;;;;;;9.63;5.88;;;;;;;;;;4976375;28;20113;-78
2022/01/30 11:09:40;;;;;;;9.27;7.45;;;;;;;;;;4975873;28;20121;-77
2022/01/30 11:12:18;;;;;;;12.57;8.02;;;;;;;;;;4977887;28;20447;-78
2022/01/30 11:17:16;;;;;;;16.15;11.90;;;;;;;;;;4977607;28;20037;-77
2022/01/30 11:19:44;;;;;;;11.98;8.65;;;;;;;;;;4977737;28;20018;-77
2022/01/30 11:22:10;;;;;;;17.65;11.50;;;;;;;;;;4977766;28;20022;-80
2022/01/30 11:24:44;;;;;;;9.23;6.20;;;;;;;;;;4975075;28;20077;-79
2022/01/30 11:27:10;;;;;;;7.75;6.00;;;;;;;;;;4975929;28;20132;-78
2022/01/30 11:29:36;;;;;;;8.02;4.80;;;;;;;;;;4976321;28;20417;-78
2022/01/30 11:32:02;;;;;;;12.25;8.68;;;;;;;;;;4976313;28;20014;-79
2022/01/30 11:34:28;;;;;;;12.13;7.07;;;;;;;;;;4976131;28;20034;-78
2022/01/30 11:36:53;;;;;;;10.48;6.60;;;;;;;;;;4976170;28;20974;-77
2022/01/30 11:39:20;;;;;;;17.50;10.43;;;;;;;;;;4974105;28;20494;-76
2022/01/30 11:42:05;;;;;;;23.73;12.68;;;;;;;;;;4976805;28;20491;-79
2022/01/30 11:44:30;;;;;;;22.52;12.73;;;;;;;;;;4977015;28;20065;-77
2022/01/30 11:47:02;;;;;;;10.93;6.80;;;;;;;;;;4977501;28;20058;-78
2022/01/30 11:49:39;;;;;;;11.00;5.38;;;;;;;;;;4976562;28;20383;-77
2022/01/30 11:52:06;;;;;;;8.43;5.13;;;;;;;;;;4976861;28;20030;-78
2022/01/30 11:54:38;;;;;;;7.65;4.75;;;;;;;;;;4976610;28;20030;-77
2022/01/30 11:57:29;;;;;;;6.07;4.20;;;;;;;;;;4975710;28;20030;-76
2022/01/30 11:59:55;;;;;;;7.50;4.15;;;;;;;;;;4970959;28;20030;-77
2022/01/30 12:02:25;;;;;;;5.45;3.65;;;;;;;;;;4976951;28;20022;-77
2022/01/30 12:04:56;;;;;;;11.10;3.35;;;;;;;;;;4977760;28;20030;-76
2022/01/30 12:07:34;;;;;;;5.97;4.05;;;;;;;;;;4975226;28;20116;-76
2022/01/30 12:10:15;;;;;;;5.90;3.55;;;;;;;;;;4964670;28;20480;-75
2022/01/30 12:12:51;;;;;;;5.78;3.72;;;;;;;;;;4957576;28;20106;-75
2022/01/30 12:15:35;;;;;;;6.13;3.55;;;;;;;;;;4958284;28;20026;-76
2022/01/30 12:18:01;;;;;;;7.82;5.10;;;;;;;;;;4956049;28;20027;-76
2022/01/30 12:20:28;;;;;;;115.38;49.03;;;;;;;;;;4958190;28;20030;-75
2022/01/30 12:22:54;;;;;;;24.50;12.48;;;;;;;;;;4957474;28;20022;-75
2022/01/30 12:25:25;;;;;;;12.80;7.90;;;;;;;;;;4956798;28;20042;-76
2022/01/30 12:27:54;;;;;;;11.30;6.70;;;;;;;;;;4957704;28;20061;-75
2022/01/30 12:30:50;;;;;;;6.85;5.63;;;;;;;;;;4957308;28;20022;-75
2022/01/30 12:33:31;;;;;;;10.38;6.03;;;;;;;;;;4945737;28;20077;-75
2022/01/30 12:35:59;;;;;;;15.10;8.77;;;;;;;;;;4963710;28;20602;-76
2022/01/30 12:38:32;;;;;;;31.83;20.15;;;;;;;;;;4968052;28;20056;-76
2022/01/30 12:40:57;;;;;;;23.65;14.00;;;;;;;;;;4976444;28;20704;-75
2022/01/30 12:43:31;;;;;;;20.25;11.93;;;;;;;;;;4976354;28;20380;-76
2022/01/30 12:46:09;;;;;;;15.20;10.15;;;;;;;;;;4975946;28;20050;-76
2022/01/30 12:48:36;;;;;;;17.50;11.70;;;;;;;;;;4975594;28;20070;-75
2022/01/30 12:51:06;;;;;;;17.00;12.48;;;;;;;;;;4976310;28;20077;-75
2022/01/30 12:53:34;;;;;;;9.88;7.75;;;;;;;;;;4976547;28;20138;-75
2022/01/30 12:55:59;;;;;;;14.80;9.60;;;;;;;;;;4976389;28;20023;-74
2022/01/30 12:58:30;;;;;;;13.52;9.02;;;;;;;;;;4976084;28;20025;-75
2022/01/30 13:01:05;;;;;;;13.98;8.82;;;;;;;;;;4976706;28;20022;-75
2022/01/30 13:03:31;;;;;;;14.55;9.57;;;;;;;;;;4975955;28;20031;-75
2022/01/30 13:05:56;;;;;;;15.35;10.07;;;;;;;;;;4975548;28;20034;-76
2022/01/30 13:08:21;;;;;;;12.65;7.75;;;;;;;;;;4975745;28;20471;-75
2022/01/30 13:13:08;;;;;;;17.65;10.55;;;;;;;;;;5134709;27;20284;-74
2022/01/30 13:15:38;;;;;;;22.90;13.45;;;;;;;;;;5113855;27;20123;-76
2022/01/30 13:18:03;;;;;;;26.67;13.63;;;;;;;;;;5095185;28;20541;-74
2022/01/30 13:20:29;;;;;;;27.17;17.00;;;;;;;;;;5112786;27;20023;-76
2022/01/30 13:22:54;;;;;;;32.35;18.75;;;;;;;;;;5112917;28;20462;-75
2022/01/30 13:25:20;;;;;;;19.75;11.98;;;;;;;;;;5113939;27;20015;-75
2022/01/30 13:27:47;;;;;;;16.15;10.68;;;;;;;;;;5125207;27;20023;-75
2022/01/30 13:30:19;;;;;;;22.17;12.35;;;;;;;;;;5134010;27;20019;-75
2022/01/30 13:32:44;;;;;;;21.83;11.80;;;;;;;;;;5134369;27;20030;-75
2022/01/30 13:35:13;;;;;;;25.88;12.38;;;;;;;;;;5133328;27;20019;-75
2022/01/30 13:37:39;;;;;;;16.50;10.03;;;;;;;;;;5132934;27;20053;-75
2022/01/30 13:40:15;;;;;;;12.15;8.82;;;;;;;;;;5134301;27;20237;-75
2022/01/30 13:43:05;;;;;;;11.93;7.55;;;;;;;;;;5133985;27;20023;-75
2022/01/30 13:47:57;;;;;;;11.70;6.75;;;;;;;;;;5105600;28;20489;-75
2022/01/30 13:50:24;;;;;;;20.90;12.40;;;;;;;;;;5112763;27;20025;-75
2022/01/30 13:53:02;;;;;;;24.95;13.70;;;;;;;;;;5089120;28;20481;-75
2022/01/30 13:55:27;;;;;;;24.00;16.58;;;;;;;;;;5097999;27;20051;-74
2022/01/30 13:57:56;;;;;;;28.90;18.63;;;;;;;;;;5133299;27;20058;-76
2022/01/30 14:00:22;;;;;;;38.10;23.15;;;;;;;;;;5114189;27;20560;-76
2022/01/30 14:02:51;;;;;;;48.95;26.52;;;;;;;;;;5133240;27;20094;-76
2022/01/30 14:05:23;;;;;;;30.02;18.20;;;;;;;;;;5133269;27;20438;-77
2022/01/30 14:07:49;;;;;;;28.50;17.83;;;;;;;;;;5133030;27;20026;-76
2022/01/30 14:10:14;;;;;;;11.77;8.95;;;;;;;;;;5132470;27;20031;-75
2022/01/30 14:12:40;;;;;;;16.88;10.68;;;;;;;;;;5128732;27;20054;-75
2022/01/30 14:15:09;;;;;;;21.45;14.65;;;;;;;;;;5133617;27;20030;-75
2022/01/30 14:17:42;;;;;;;25.15;14.65;;;;;;;;;;5132701;27;20585;-74
2022/01/30 14:20:10;;;;;;;33.65;18.80;;;;;;;;;;5132822;27;20473;-75
2022/01/30 14:22:35;;;;;;;51.83;29.90;;;;;;;;;;5127363;27;20076;-75
2022/01/30 14:25:02;;;;;;;38.35;22.63;;;;;;;;;;5117526;27;20023;-76
2022/01/30 14:27:33;;;;;;;44.75;25.20;;;;;;;;;;5119244;27;20019;-75
2022/01/30 14:30:04;;;;;;;38.05;22.90;;;;;;;;;;5117111;27;20062;-76
2022/01/30 14:32:34;;;;;;;33.20;18.73;;;;;;;;;;5117384;27;20027;-77
2022/01/30 14:35:00;;;;;;;21.75;13.38;;;;;;;;;;5118431;27;20366;-77
2022/01/30 14:37:25;;;;;;;16.17;12.20;;;;;;;;;;5118003;27;20030;-76
2022/01/30 14:40:04;;;;;;;10.68;7.53;;;;;;;;;;5118562;27;20052;-74
2022/01/30 14:42:30;;;;;;;31.27;16.47;;;;;;;;;;5120228;27;20019;-74
2022/01/30 14:44:55;;;;;;;16.90;11.07;;;;;;;;;;5114223;27;20735;-73
2022/01/30 14:47:21;;;;;;;22.60;14.02;;;;;;;;;;5088166;28;20019;-74
2022/01/30 14:49:47;;;;;;;56.22;31.70;;;;;;;;;;5077980;28;20028;-74
2022/01/30 14:52:14;;;;;;;31.20;21.55;;;;;;;;;;5077445;28;20024;-74
2022/01/30 14:54:39;;;;;;;37.92;30.63;;;;;;;;;;5077226;28;20093;-74
2022/01/30 14:57:05;;;;;;;48.40;33.65;;;;;;;;;;5109229;27;20470;-74
2022/01/30 14:59:31;;;;;;;63.83;34.00;;;;;;;;;;5117931;27;20031;-74
2022/01/30 15:01:57;;;;;;;94.72;53.65;;;;;;;;;;5117795;27;20468;-75
2022/01/30 15:04:22;;;;;;;84.20;47.00;;;;;;;;;;5117778;27;20015;-74
2022/01/30 15:06:48;;;;;;;103.47;50.17;;;;;;;;;;5118071;27;20041;-75
2022/01/30 15:09:13;;;;;;;33.03;18.85;;;;;;;;;;5117636;27;20012;-74
2022/01/30 15:11:39;;;;;;;18.63;10.73;;;;;;;;;;5109937;27;20051;-74
2022/01/30 15:14:05;;;;;;;28.88;15.73;;;;;;;;;;5097043;28;20047;-74
2022/01/30 15:16:46;;;;;;;14.73;8.45;;;;;;;;;;5097002;28;20106;-74
2022/01/30 15:19:12;;;;;;;9.77;5.03;;;;;;;;;;5064976;28;20031;-77
2022/01/30 15:21:38;;;;;;;6.50;3.85;;;;;;;;;;5053758;28;20047;-76
2022/01/30 15:24:04;;;;;;;7.38;4.22;;;;;;;;;;5069527;28;20051;-77
2022/01/30 15:26:29;;;;;;;16.25;8.68;;;;;;;;;;5064948;28;20031;-76
2022/01/30 15:28:55;;;;;;;16.55;10.60;;;;;;;;;;5038296;28;20035;-75
2022/01/30 15:31:21;;;;;;;14.63;8.75;;;;;;;;;;5058846;28;20032;-75